Time;durP1;ratioP1;P1;durP2;ratioP2;P2;SDS_P1;SDS_P2;PMS_P1;PMS_P2;Temp;Humidity;BMP_temperature;BMP_pressure;BME280_temperature;BME280_humidity;BME280_pressure;Samples;Min_cycle;Max_cycle;Signal;HPM_P1;HPM_P2
2022/10/22 00:03:30;;;;;;;;;;;;;;;12.56;86.17188;100880.1;;;;-74
2022/10/22 00:08:31;;;;;;;;;;;;;;;12.53;86.12207;100869;;;;-75
2022/10/22 00:13:30;;;;;;;;;;;;;;;12.52;86.23145;100865.6;;;;-75
2022/10/22 00:14:53;;;;;;;6.6;2.1;;;;;;;;;;;;;-77
2022/10/22 00:18:30;;;;;;;;;;;;;;;12.53;86.42188;100865.8;;;;-75
2022/10/22 00:23:30;;;;;;;;;;;;;;;12.54;87.44434;100865.9;;;;-74
2022/10/22 00:28:30;;;;;;;;;;;;;;;12.52;86.77637;100870.6;;;;-75
2022/10/22 00:33:31;;;;;;;;;;;;;;;12.56;87.25;100869.8;;;;-78
2022/10/22 00:38:30;;;;;;;;;;;;;;;12.55;87.78027;100876.3;;;;-75
2022/10/22 00:43:30;;;;;;;;;;;;;;;12.53;87.6084;100874;;;;-75
2022/10/22 00:45:05;;;;;;;7.6;2.3;;;;;;;;;;;;;-74
2022/10/22 00:48:33;;;;;;;;;;;;;;;12.49;87.87891;100875.6;;;;-73
2022/10/22 00:53:32;;;;;;;;;;;;;;;12.45;87.79199;100883;;;;-75
2022/10/22 00:58:32;;;;;;;;;;;;;;;12.42;87.4541;100883.4;;;;-75
2022/10/22 01:03:30;;;;;;;;;;;;;;;12.38;87.85645;100886.3;;;;-75
2022/10/22 01:08:40;;;;;;;;;;;;;;;12.38;87.58887;100889.6;;;;-75
2022/10/22 01:13:35;;;;;;;;;;;;;;;12.31;87.09961;100895.4;;;;-75
2022/10/22 01:15:06;;;;;;;6;2.3;;;;;;;;;;;;;-75
2022/10/22 01:18:34;;;;;;;;;;;;;;;12.37;87.9209;100886.8;;;;-75
2022/10/22 01:23:51;;;;;;;;;;;;;;;12.34;87.02734;100886.3;;;;-75
2022/10/22 01:28:30;;;;;;;;;;;;;;;12.35;87.62793;100885.5;;;;-74
2022/10/22 01:33:31;;;;;;;;;;;;;;;12.34;87.54785;100886.3;;;;-75
2022/10/22 01:38:30;;;;;;;;;;;;;;;12.41;87.20801;100888.9;;;;-75
2022/10/22 01:43:30;;;;;;;;;;;;;;;12.46;87.55176;100887.3;;;;-74
2022/10/22 01:44:57;;;;;;;4.9;2.2;;;;;;;;;;;;;-74
2022/10/22 01:48:37;;;;;;;;;;;;;;;12.52;88.44922;100875.2;;;;-76
2022/10/22 01:53:35;;;;;;;;;;;;;;;12.54;87.90039;100876.7;;;;-75
2022/10/22 01:58:36;;;;;;;;;;;;;;;12.58;87.71777;100873.3;;;;-74
2022/10/22 02:03:36;;;;;;;;;;;;;;;12.61;87.50293;100872.2;;;;-74
2022/10/22 02:08:32;;;;;;;;;;;;;;;12.66;87.69141;100875.3;;;;-76
2022/10/22 02:13:33;;;;;;;;;;;;;;;12.74;88.9502;100873.9;;;;-75
2022/10/22 02:14:58;;;;;;;6.8;2;;;;;;;;;;;;;-75
2022/10/22 02:18:34;;;;;;;;;;;;;;;12.8;88.92773;100872.3;;;;-75
2022/10/22 02:23:31;;;;;;;;;;;;;;;12.85;88.57129;100868.6;;;;-74
2022/10/22 02:28:34;;;;;;;;;;;;;;;12.88;88.79785;100879.2;;;;-76
2022/10/22 02:33:31;;;;;;;;;;;;;;;12.96;89.54883;100873.8;;;;-76
2022/10/22 02:38:31;;;;;;;;;;;;;;;12.97;88.84082;100874;;;;-76
2022/10/22 02:43:31;;;;;;;;;;;;;;;13.03;89.74902;100876.2;;;;-75
2022/10/22 02:44:59;;;;;;;5.5;1.9;;;;;;;;;;;;;-75
2022/10/22 02:48:30;;;;;;;;;;;;;;;13.02;89.50488;100869.6;;;;-74
2022/10/22 02:53:30;;;;;;;;;;;;;;;13;89.30078;100875.2;;;;-75
2022/10/22 02:58:30;;;;;;;;;;;;;;;13;89.87793;100876.6;;;;-74
2022/10/22 03:03:30;;;;;;;;;;;;;;;12.96;89.45801;100879;;;;-74
2022/10/22 03:08:30;;;;;;;;;;;;;;;12.93;89.69727;100875.6;;;;-76
2022/10/22 03:13:31;;;;;;;;;;;;;;;12.93;89.5752;100879.9;;;;-75
2022/10/22 03:15:00;;;;;;;8.8;2;;;;;;;;;;;;;-75
2022/10/22 03:18:30;;;;;;;;;;;;;;;12.94;89.74512;100876.3;;;;-75
2022/10/22 03:23:30;;;;;;;;;;;;;;;12.95;90.34375;100876.7;;;;-74
2022/10/22 03:28:30;;;;;;;;;;;;;;;12.97;90.11426;100875.4;;;;-75
2022/10/22 03:33:30;;;;;;;;;;;;;;;13;90.24414;100875.8;;;;-75
2022/10/22 03:38:31;;;;;;;;;;;;;;;13.01;90.09082;100873.2;;;;-75
2022/10/22 03:43:30;;;;;;;;;;;;;;;13.01;90.17969;100879;;;;-74
2022/10/22 03:45:01;;;;;;;6.7;2;;;;;;;;;;;;;-75
2022/10/22 03:48:30;;;;;;;;;;;;;;;13.01;90.43457;100884;;;;-76
2022/10/22 03:53:30;;;;;;;;;;;;;;;13.01;90.41211;100883.8;;;;-74
2022/10/22 03:58:30;;;;;;;;;;;;;;;13.01;90.09082;100892;;;;-74
2022/10/22 04:03:30;;;;;;;;;;;;;;;12.97;90.30469;100894.9;;;;-76
2022/10/22 04:08:30;;;;;;;;;;;;;;;12.96;89.85938;100911.3;;;;-74
2022/10/22 04:13:30;;;;;;;;;;;;;;;12.95;89.98926;100917;;;;-75
2022/10/22 04:15:03;;;;;;;5.6;2;;;;;;;;;;;;;-75
2022/10/22 04:18:30;;;;;;;;;;;;;;;12.96;90.03516;100920.7;;;;-74
2022/10/22 04:23:30;;;;;;;;;;;;;;;13;90.42188;100920.8;;;;-76
2022/10/22 04:28:30;;;;;;;;;;;;;;;13.01;90.14648;100924.8;;;;-75
2022/10/22 04:33:30;;;;;;;;;;;;;;;13;89.80078;100922.3;;;;-75
2022/10/22 04:38:30;;;;;;;;;;;;;;;13;90.11133;100925.2;;;;-75
2022/10/22 04:43:30;;;;;;;;;;;;;;;12.99;89.96484;100924.5;;;;-71
2022/10/22 04:45:04;;;;;;;10.3;2.3;;;;;;;;;;;;;-71
2022/10/22 04:48:30;;;;;;;;;;;;;;;13.01;90.17969;100925.6;;;;-71
2022/10/22 04:53:30;;;;;;;;;;;;;;;13.02;90.51465;100929.4;;;;-72
2022/10/22 04:58:32;;;;;;;;;;;;;;;13;90.22168;100924.2;;;;-70
2022/10/22 05:03:31;;;;;;;;;;;;;;;13.01;90.25879;100926.7;;;;-70
2022/10/22 05:08:30;;;;;;;;;;;;;;;13.01;90.46973;100926.2;;;;-72
2022/10/22 05:13:30;;;;;;;;;;;;;;;13.02;90.34766;100924.8;;;;-70
2022/10/22 05:15:05;;;;;;;12.2;2.2;;;;;;;;;;;;;-71
2022/10/22 05:18:30;;;;;;;;;;;;;;;13.01;90.11328;100931.6;;;;-71
2022/10/22 05:23:30;;;;;;;;;;;;;;;13.01;90.40137;100929.7;;;;-71
2022/10/22 05:28:31;;;;;;;;;;;;;;;13.01;90.56738;100938.6;;;;-70
2022/10/22 05:33:31;;;;;;;;;;;;;;;13;90.53223;100949;;;;-69
2022/10/22 05:38:31;;;;;;;;;;;;;;;12.99;90.54199;100950;;;;-72
2022/10/22 05:43:30;;;;;;;;;;;;;;;12.96;90.51367;100955.9;;;;-70
2022/10/22 05:45:07;;;;;;;6.3;2.2;;;;;;;;;;;;;-71
2022/10/22 05:48:30;;;;;;;;;;;;;;;12.93;90.6748;100956.6;;;;-71
2022/10/22 05:53:30;;;;;;;;;;;;;;;12.9;90.73438;100958.6;;;;-71
2022/10/22 05:58:30;;;;;;;;;;;;;;;12.87;91.02734;100961.9;;;;-71
2022/10/22 06:03:31;;;;;;;;;;;;;;;12.85;91.05469;100969.2;;;;-72
2022/10/22 06:08:30;;;;;;;;;;;;;;;12.79;90.7334;100970.5;;;;-71
2022/10/22 06:13:31;;;;;;;;;;;;;;;12.76;90.90527;100973.1;;;;-71
2022/10/22 06:15:08;;;;;;;6.7;2.4;;;;;;;;;;;;;-70
2022/10/22 06:18:30;;;;;;;;;;;;;;;12.74;90.91016;100984.8;;;;-72
2022/10/22 06:23:30;;;;;;;;;;;;;;;12.74;91.1875;100984.1;;;;-70
2022/10/22 06:28:30;;;;;;;;;;;;;;;12.77;91.27148;100992.4;;;;-70
2022/10/22 06:33:30;;;;;;;;;;;;;;;12.79;91.17676;100999.4;;;;-71
2022/10/22 06:38:33;;;;;;;;;;;;;;;12.85;91.3877;101004.9;;;;-70
2022/10/22 06:43:31;;;;;;;;;;;;;;;12.89;91.43262;101014;;;;-70
2022/10/22 06:45:13;;;;;;;8.5;2.5;;;;;;;;;;;;;-70
2022/10/22 06:48:30;;;;;;;;;;;;;;;12.95;91.49707;101018.9;;;;-72
2022/10/22 06:53:30;;;;;;;;;;;;;;;13;91.58594;101025.3;;;;-72
2022/10/22 06:58:30;;;;;;;;;;;;;;;13.04;91.64941;101030.9;;;;-70
2022/10/22 07:03:30;;;;;;;;;;;;;;;13.08;91.35742;101034.8;;;;-72
2022/10/22 07:08:30;;;;;;;;;;;;;;;13.13;91.91211;101036.1;;;;-71
2022/10/22 07:13:31;;;;;;;;;;;;;;;13.17;91.24316;101047.7;;;;-72
2022/10/22 07:15:13;;;;;;;7.7;2.1;;;;;;;;;;;;;-77
2022/10/22 07:18:30;;;;;;;;;;;;;;;13.22;91.05469;101051.4;;;;-75
2022/10/22 07:23:31;;;;;;;;;;;;;;;13.29;91.29199;101056.6;;;;-75
2022/10/22 07:28:31;;;;;;;;;;;;;;;13.33;91.14355;101052.9;;;;-75
2022/10/22 07:33:40;;;;;;;;;;;;;;;13.38;90.91113;101063.6;;;;-73
2022/10/22 07:38:31;;;;;;;;;;;;;;;13.44;91.35742;101072.3;;;;-75
2022/10/22 07:43:30;;;;;;;;;;;;;;;13.48;90.6875;101079.8;;;;-75
2022/10/22 07:45:13;;;;;;;7.2;2.1;;;;;;;;;;;;;-74
2022/10/22 07:48:30;;;;;;;;;;;;;;;13.54;90.77832;101081;;;;-76
2022/10/22 07:53:30;;;;;;;;;;;;;;;13.61;90.60059;101087.1;;;;-74
2022/10/22 07:58:30;;;;;;;;;;;;;;;13.67;90.69336;101096.6;;;;-75
2022/10/22 08:03:31;;;;;;;;;;;;;;;13.72;90.10254;101103.8;;;;-76
2022/10/22 08:08:30;;;;;;;;;;;;;;;13.76;90.18945;101111;;;;-75
2022/10/22 08:13:31;;;;;;;;;;;;;;;13.83;90.25781;101112.8;;;;-75
2022/10/22 08:15:13;;;;;;;9.9;2.3;;;;;;;;;;;;;-73
2022/10/22 08:18:31;;;;;;;;;;;;;;;13.83;89.83789;101111.7;;;;-76
2022/10/22 08:23:30;;;;;;;;;;;;;;;13.85;89.7168;101127;;;;-74
2022/10/22 08:28:34;;;;;;;;;;;;;;;13.9;90.02637;101132.2;;;;-75
2022/10/22 08:33:30;;;;;;;;;;;;;;;13.93;89.72266;101130.7;;;;-75
2022/10/22 08:38:30;;;;;;;;;;;;;;;14.01;89.68359;101138.2;;;;-75
2022/10/22 08:43:44;;;;;;;;;;;;;;;14.08;89.46484;101149.6;;;;-73
2022/10/22 08:45:16;;;;;;;10.6;2.7;;;;;;;;;;;;;-75
2022/10/22 08:48:37;;;;;;;;;;;;;;;14.24;89.85449;101151.4;;;;-74
2022/10/22 08:53:33;;;;;;;;;;;;;;;14.33;89.48145;101162.3;;;;-74
2022/10/22 08:58:34;;;;;;;;;;;;;;;14.36;90.04492;101163.1;;;;-74
2022/10/22 09:03:41;;;;;;;;;;;;;;;14.37;90.18945;101168.8;;;;-74
2022/10/22 09:08:30;;;;;;;;;;;;;;;14.4;90.48633;101175.8;;;;-75
2022/10/22 09:13:30;;;;;;;;;;;;;;;14.5;90.51855;101178.4;;;;-75
2022/10/22 09:15:20;;;;;;;8.7;2.5;;;;;;;;;;;;;-75
2022/10/22 09:18:35;;;;;;;;;;;;;;;14.59;90.54785;101188.6;;;;-75
2022/10/22 09:23:35;;;;;;;;;;;;;;;14.66;90.01758;101195.2;;;;-73
2022/10/22 09:28:30;;;;;;;;;;;;;;;14.75;90.07813;101194;;;;-77
2022/10/22 09:33:32;;;;;;;;;;;;;;;14.92;89.93555;101201.5;;;;-74
2022/10/22 09:38:32;;;;;;;;;;;;;;;15.05;89.18262;101199.1;;;;-75
2022/10/22 09:43:30;;;;;;;;;;;;;;;15.16;89.14746;101204;;;;-74
2022/10/22 09:45:22;;;;;;;9.4;2.4;;;;;;;;;;;;;-74
2022/10/22 09:48:33;;;;;;;;;;;;;;;15.26;89.20313;101209.7;;;;-74
2022/10/22 09:53:33;;;;;;;;;;;;;;;15.52;88.54004;101211.9;;;;-73
2022/10/22 09:58:30;;;;;;;;;;;;;;;15.76;87.43652;101224.3;;;;-74
2022/10/22 10:03:32;;;;;;;;;;;;;;;15.99;85.83887;101232.5;;;;-74
2022/10/22 10:08:30;;;;;;;;;;;;;;;16;85.63965;101244.3;;;;-74
2022/10/22 10:13:44;;;;;;;;;;;;;;;15.95;86.02246;101248.5;;;;-74
2022/10/22 10:15:23;;;;;;;11.7;2;;;;;;;;;;;;;-75
2022/10/22 10:18:38;;;;;;;;;;;;;;;15.93;86.27441;101260.3;;;;-72
2022/10/22 10:23:33;;;;;;;;;;;;;;;15.91;85.7002;101270.7;;;;-74
2022/10/22 10:28:38;;;;;;;;;;;;;;;15.85;85.55371;101284.4;;;;-74
2022/10/22 10:33:34;;;;;;;;;;;;;;;15.7;86.74414;101290.2;;;;-75
2022/10/22 10:38:40;;;;;;;;;;;;;;;15.65;87.13379;101288.7;;;;-74
2022/10/22 10:43:35;;;;;;;;;;;;;;;15.6;87.19336;101295.9;;;;-74
2022/10/22 10:45:25;;;;;;;9.3;1.4;;;;;;;;;;;;;-74
2022/10/22 10:48:36;;;;;;;;;;;;;;;15.55;87.50684;101301.4;;;;-75
2022/10/22 10:53:36;;;;;;;;;;;;;;;15.49;87.81738;101305.6;;;;-73
2022/10/22 10:58:34;;;;;;;;;;;;;;;15.48;87.4043;101305.9;;;;-74
2022/10/22 11:03:41;;;;;;;;;;;;;;;15.47;87.45703;101310.1;;;;-74
2022/10/22 11:08:32;;;;;;;;;;;;;;;15.47;88.02637;101310.9;;;;-74
2022/10/22 11:13:33;;;;;;;;;;;;;;;15.51;88.13379;101315.8;;;;-74
2022/10/22 11:15:25;;;;;;;7.6;1.2;;;;;;;;;;;;;-74
2022/10/22 11:18:35;;;;;;;;;;;;;;;15.64;88.38477;101318.9;;;;-73
2022/10/22 11:23:34;;;;;;;;;;;;;;;15.85;88.13379;101328;;;;-75
2022/10/22 11:28:34;;;;;;;;;;;;;;;16.02;87.20703;101327.7;;;;-74
2022/10/22 11:33:34;;;;;;;;;;;;;;;16.18;86.63477;101333.5;;;;-74
2022/10/22 11:38:32;;;;;;;;;;;;;;;16.31;85.22949;101342.1;;;;-74
2022/10/22 11:43:35;;;;;;;;;;;;;;;16.35;84.56445;101342.8;;;;-74
2022/10/22 11:45:34;;;;;;;9.2;1.3;;;;;;;;;;;;;-74
2022/10/22 11:48:31;;;;;;;;;;;;;;;16.26;83.66211;101343.1;;;;-74
2022/10/22 11:53:34;;;;;;;;;;;;;;;16.25;83.7168;101341.3;;;;-73
2022/10/22 11:58:34;;;;;;;;;;;;;;;16.25;82.73047;101347.4;;;;-73
2022/10/22 12:03:44;;;;;;;;;;;;;;;16.24;82.67285;101351;;;;-73
2022/10/22 12:08:31;;;;;;;;;;;;;;;16.33;82.46484;101354.7;;;;-74
2022/10/22 12:13:31;;;;;;;;;;;;;;;16.4;81.16797;101346.8;;;;-73
2022/10/22 12:15:29;;;;;;;10.2;1.6;;;;;;;;;;;;;-74
2022/10/22 12:18:31;;;;;;;;;;;;;;;16.54;80.86621;101348.7;;;;-75
2022/10/22 12:23:33;;;;;;;;;;;;;;;16.6;79.50977;101349.7;;;;-74
2022/10/22 12:28:30;;;;;;;;;;;;;;;16.64;79.11133;101359.7;;;;-73
2022/10/22 12:33:32;;;;;;;;;;;;;;;16.45;76.63281;101363.6;;;;-73
2022/10/22 12:38:31;;;;;;;;;;;;;;;16.4;76.16309;101364.6;;;;-72
2022/10/22 12:43:32;;;;;;;;;;;;;;;16.44;75.5625;101363.7;;;;-71
2022/10/22 12:45:29;;;;;;;21.8;2.2;;;;;;;;;;;;;-74
2022/10/22 12:48:33;;;;;;;;;;;;;;;16.78;76.65723;101362.3;;;;-73
2022/10/22 12:53:36;;;;;;;;;;;;;;;16.77;73.91016;101368.6;;;;-73
2022/10/22 12:58:32;;;;;;;;;;;;;;;16.86;73.36426;101364.6;;;;-74
2022/10/22 13:03:37;;;;;;;;;;;;;;;16.89;73.60449;101364.6;;;;-74
2022/10/22 13:08:31;;;;;;;;;;;;;;;16.81;74.56934;101366.7;;;;-75
2022/10/22 13:13:45;;;;;;;;;;;;;;;16.73;74.5459;101364.7;;;;-75
2022/10/22 13:15:40;;;;;;;18;1.6;;;;;;;;;;;;;-74
2022/10/22 13:18:35;;;;;;;;;;;;;;;16.71;75.13867;101374.1;;;;-75
2022/10/22 13:23:31;;;;;;;;;;;;;;;16.65;75.53223;101380.8;;;;-73
2022/10/22 13:28:31;;;;;;;;;;;;;;;16.74;75.88379;101377.8;;;;-73
2022/10/22 13:33:32;;;;;;;;;;;;;;;16.68;75.53906;101368.1;;;;-75
2022/10/22 13:38:31;;;;;;;;;;;;;;;16.67;75.52441;101379.7;;;;-76
2022/10/22 13:43:30;;;;;;;;;;;;;;;16.63;75.7207;101377.8;;;;-73
2022/10/22 13:45:32;;;;;;;12.3;2.1;;;;;;;;;;;;;-75
2022/10/22 13:48:31;;;;;;;;;;;;;;;16.64;75.55176;101391.7;;;;-74
2022/10/22 13:53:31;;;;;;;;;;;;;;;16.67;75.5791;101390.6;;;;-75
2022/10/22 13:58:30;;;;;;;;;;;;;;;16.73;75.0293;101387.6;;;;-74
2022/10/22 14:03:32;;;;;;;;;;;;;;;16.73;74.74805;101392.1;;;;-73
2022/10/22 14:08:30;;;;;;;;;;;;;;;16.76;74.10059;101395.8;;;;-75
2022/10/22 14:13:30;;;;;;;;;;;;;;;16.72;74.03711;101394.2;;;;-74
2022/10/22 14:15:34;;;;;;;9.6;1.3;;;;;;;;;;;;;-74
2022/10/22 14:18:33;;;;;;;;;;;;;;;16.72;74.08398;101391;;;;-74
2022/10/22 14:23:32;;;;;;;;;;;;;;;16.66;74.07324;101396.7;;;;-73
2022/10/22 14:28:30;;;;;;;;;;;;;;;16.59;74.37598;101401.6;;;;-74
2022/10/22 14:33:31;;;;;;;;;;;;;;;16.51;74.38574;101409.8;;;;-74
2022/10/22 14:38:30;;;;;;;;;;;;;;;16.45;74.64453;101409.3;;;;-74
2022/10/22 14:43:31;;;;;;;;;;;;;;;16.36;74.61816;101411.2;;;;-73
2022/10/22 14:45:36;;;;;;;9.7;1.6;;;;;;;;;;;;;-74
2022/10/22 14:48:30;;;;;;;;;;;;;;;16.33;74.71484;101419.2;;;;-74
2022/10/22 14:53:30;;;;;;;;;;;;;;;16.24;74.99121;101424.8;;;;-73
2022/10/22 14:58:30;;;;;;;;;;;;;;;16.15;75.6377;101425.9;;;;-77
2022/10/22 15:03:30;;;;;;;;;;;;;;;16.07;75.80371;101423.4;;;;-73
2022/10/22 15:08:30;;;;;;;;;;;;;;;16.03;75.87598;101429.1;;;;-75
2022/10/22 15:13:30;;;;;;;;;;;;;;;15.98;76.1582;101421.6;;;;-74
2022/10/22 15:15:38;;;;;;;8.7;1.5;;;;;;;;;;;;;-74
2022/10/22 15:18:30;;;;;;;;;;;;;;;15.97;76.66113;101425.9;;;;-74
2022/10/22 15:23:30;;;;;;;;;;;;;;;15.99;76.6084;101430.1;;;;-74
2022/10/22 15:28:30;;;;;;;;;;;;;;;16;76.7793;101430;;;;-74
2022/10/22 15:33:31;;;;;;;;;;;;;;;15.98;76.93164;101436.2;;;;-74
2022/10/22 15:38:33;;;;;;;;;;;;;;;15.94;77.4082;101440.8;;;;-74
2022/10/22 15:43:30;;;;;;;;;;;;;;;15.89;77.81348;101438.8;;;;-73
2022/10/22 15:45:40;;;;;;;7.5;1.5;;;;;;;;;;;;;-74
2022/10/22 15:48:30;;;;;;;;;;;;;;;15.83;77.69141;101443.5;;;;-74
2022/10/22 15:53:30;;;;;;;;;;;;;;;15.76;77.96973;101449.5;;;;-75
2022/10/22 15:58:30;;;;;;;;;;;;;;;15.69;78.39453;101452.4;;;;-73
2022/10/22 16:03:30;;;;;;;;;;;;;;;15.61;78.51563;101453.3;;;;-74
2022/10/22 16:08:30;;;;;;;;;;;;;;;15.5;78.91016;101452.7;;;;-74
2022/10/22 16:13:30;;;;;;;;;;;;;;;15.38;79.0459;101453.2;;;;-73
2022/10/22 16:15:43;;;;;;;10.3;1.9;;;;;;;;;;;;;-73
2022/10/22 16:18:30;;;;;;;;;;;;;;;15.26;79.22656;101461.4;;;;-73
2022/10/22 16:23:30;;;;;;;;;;;;;;;15.15;79.19434;101462.3;;;;-73
2022/10/22 16:28:30;;;;;;;;;;;;;;;15.01;79.08008;101470.1;;;;-74
2022/10/22 16:33:30;;;;;;;;;;;;;;;14.88;79.00098;101475.5;;;;-74
2022/10/22 16:38:30;;;;;;;;;;;;;;;14.73;79.24219;101476.5;;;;-73
2022/10/22 16:43:32;;;;;;;;;;;;;;;14.61;79.62402;101480.3;;;;-75
2022/10/22 16:45:49;;;;;;;10.3;1.8;;;;;;;;;;;;;-74
2022/10/22 16:48:31;;;;;;;;;;;;;;;14.49;79.92383;101481.2;;;;-74
2022/10/22 16:53:30;;;;;;;;;;;;;;;14.39;80.15234;101477.4;;;;-73
2022/10/22 16:58:30;;;;;;;;;;;;;;;14.3;80.25781;101484.5;;;;-74
2022/10/22 17:03:30;;;;;;;;;;;;;;;14.19;80.31738;101487.7;;;;-74
2022/10/22 17:08:30;;;;;;;;;;;;;;;14.11;80.52539;101490.3;;;;-74
2022/10/22 17:13:30;;;;;;;;;;;;;;;14.05;80.43555;101496.5;;;;-74
2022/10/22 17:15:46;;;;;;;6.7;1.9;;;;;;;;;;;;;-73
2022/10/22 17:18:30;;;;;;;;;;;;;;;13.97;80.59961;101498.7;;;;-72
2022/10/22 17:23:31;;;;;;;;;;;;;;;13.87;80.32617;101504.4;;;;-73
2022/10/22 17:28:30;;;;;;;;;;;;;;;13.78;79.94141;101509;;;;-74
2022/10/22 17:33:30;;;;;;;;;;;;;;;13.66;80.26563;101515.1;;;;-77
2022/10/22 17:38:30;;;;;;;;;;;;;;;13.6;80.74414;101519.8;;;;-73
2022/10/22 17:43:30;;;;;;;;;;;;;;;13.44;80.64941;101519.7;;;;-74
2022/10/22 17:45:49;;;;;;;8.3;2;;;;;;;;;;;;;-73
2022/10/22 17:48:30;;;;;;;;;;;;;;;13.4;80.51855;101533.5;;;;-74
2022/10/22 17:53:30;;;;;;;;;;;;;;;13.31;80.64648;101530.6;;;;-75
2022/10/22 17:58:30;;;;;;;;;;;;;;;13.23;80.57617;101528.8;;;;-75
2022/10/22 18:03:32;;;;;;;;;;;;;;;13.15;80.80566;101542.7;;;;-74
2022/10/22 18:08:30;;;;;;;;;;;;;;;13.12;80.96777;101535.4;;;;-74
2022/10/22 18:13:30;;;;;;;;;;;;;;;13.03;81.0625;101534.2;;;;-74
2022/10/22 18:15:56;;;;;;;6.6;2;;;;;;;;;;;;;-75
2022/10/22 18:18:30;;;;;;;;;;;;;;;12.96;81.2373;101539.3;;;;-76
2022/10/22 18:23:32;;;;;;;;;;;;;;;12.95;81.02441;101546.9;;;;-74
2022/10/22 18:28:30;;;;;;;;;;;;;;;12.91;81.18652;101553;;;;-77
2022/10/22 18:33:30;;;;;;;;;;;;;;;12.88;81.35742;101549.5;;;;-73
2022/10/22 18:38:30;;;;;;;;;;;;;;;12.84;81.30664;101544.3;;;;-76
2022/10/22 18:43:30;;;;;;;;;;;;;;;12.81;81.32227;101542.8;;;;-75
2022/10/22 18:45:51;;;;;;;9.5;2.2;;;;;;;;;;;;;-74
2022/10/22 18:48:30;;;;;;;;;;;;;;;12.79;81.49512;101539.9;;;;-74
2022/10/22 18:53:30;;;;;;;;;;;;;;;12.77;81.32617;101530.5;;;;-75
2022/10/22 18:58:30;;;;;;;;;;;;;;;12.74;81.39746;101532.1;;;;-75
2022/10/22 19:03:30;;;;;;;;;;;;;;;12.71;81.39453;101536.3;;;;-74
2022/10/22 19:08:30;;;;;;;;;;;;;;;12.68;81.32031;101533.5;;;;-74
2022/10/22 19:13:30;;;;;;;;;;;;;;;12.64;81.48047;101537.8;;;;-76
2022/10/22 19:15:52;;;;;;;6.5;2.5;;;;;;;;;;;;;-73
2022/10/22 19:18:30;;;;;;;;;;;;;;;12.62;81.55566;101537;;;;-74
2022/10/22 19:23:33;;;;;;;;;;;;;;;12.57;81.43359;101532.1;;;;-75
2022/10/22 19:28:30;;;;;;;;;;;;;;;12.55;81.36426;101537.9;;;;-74
2022/10/22 19:33:30;;;;;;;;;;;;;;;12.51;81.37793;101532.8;;;;-75
2022/10/22 19:38:31;;;;;;;;;;;;;;;12.48;81.64844;101535.2;;;;-75
2022/10/22 19:43:31;;;;;;;;;;;;;;;12.45;81.63281;101538.6;;;;-74
2022/10/22 19:45:55;;;;;;;6.1;2.3;;;;;;;;;;;;;-75
2022/10/22 19:48:30;;;;;;;;;;;;;;;12.41;81.63672;101536.6;;;;-74
2022/10/22 19:53:30;;;;;;;;;;;;;;;12.38;81.50781;101536;;;;-74
2022/10/22 19:58:32;;;;;;;;;;;;;;;12.36;81.9834;101537.6;;;;-76
2022/10/22 20:03:32;;;;;;;;;;;;;;;12.35;81.74707;101536.6;;;;-74
2022/10/22 20:08:34;;;;;;;;;;;;;;;12.32;81.82129;101538.5;;;;-73
2022/10/22 20:13:30;;;;;;;;;;;;;;;12.29;81.97168;101543.7;;;;-73
2022/10/22 20:15:55;;;;;;;8.1;2.8;;;;;;;;;;;;;-75
2022/10/22 20:18:32;;;;;;;;;;;;;;;12.3;81.70508;101546;;;;-75
2022/10/22 20:23:30;;;;;;;;;;;;;;;12.27;81.81152;101544.2;;;;-75
2022/10/22 20:28:30;;;;;;;;;;;;;;;12.28;81.94434;101546.6;;;;-76
2022/10/22 20:33:30;;;;;;;;;;;;;;;12.25;82.20801;101547;;;;-74
2022/10/22 20:38:30;;;;;;;;;;;;;;;12.24;82.31543;101546.2;;;;-74
2022/10/22 20:43:30;;;;;;;;;;;;;;;12.23;82.30273;101545.7;;;;-74
2022/10/22 20:45:55;;;;;;;9.2;3.1;;;;;;;;;;;;;-76
2022/10/22 20:48:31;;;;;;;;;;;;;;;12.19;82.39551;101546.2;;;;-75
2022/10/22 20:53:30;;;;;;;;;;;;;;;12.2;82.23047;101545.4;;;;-75
2022/10/22 20:58:30;;;;;;;;;;;;;;;12.2;82.54102;101543;;;;-74
2022/10/22 21:03:30;;;;;;;;;;;;;;;12.17;82.30176;101541.4;;;;-74
2022/10/22 21:08:30;;;;;;;;;;;;;;;12.16;82.36816;101552.7;;;;-74
2022/10/22 21:13:30;;;;;;;;;;;;;;;12.14;82.53125;101541.1;;;;-75
2022/10/22 21:15:57;;;;;;;10.1;3.2;;;;;;;;;;;;;-79
2022/10/22 21:18:30;;;;;;;;;;;;;;;12.14;82.75195;101543.8;;;;-74
2022/10/22 21:23:31;;;;;;;;;;;;;;;12.11;82.41309;101550.1;;;;-74
2022/10/22 21:28:31;;;;;;;;;;;;;;;12.1;82.68945;101543.8;;;;-74
2022/10/22 21:33:30;;;;;;;;;;;;;;;12.09;82.66504;101548.4;;;;-73
2022/10/22 21:38:30;;;;;;;;;;;;;;;12.07;82.85059;101556;;;;-74
2022/10/22 21:43:30;;;;;;;;;;;;;;;12.04;83.09863;101556.1;;;;-73
2022/10/22 21:46:05;;;;;;;9.8;3.9;;;;;;;;;;;;;-75
2022/10/22 21:48:30;;;;;;;;;;;;;;;12.03;82.875;101554.3;;;;-75
2022/10/22 21:53:30;;;;;;;;;;;;;;;12.01;82.62793;101559.3;;;;-74
2022/10/22 21:58:31;;;;;;;;;;;;;;;12.03;82.96387;101560.9;;;;-75
2022/10/22 22:03:30;;;;;;;;;;;;;;;12.01;82.69434;101562.3;;;;-74
2022/10/22 22:08:31;;;;;;;;;;;;;;;12;83.03613;101562.3;;;;-75
2022/10/22 22:13:30;;;;;;;;;;;;;;;11.99;83.35645;101563.6;;;;-75
2022/10/22 22:16:01;;;;;;;10;3.7;;;;;;;;;;;;;-75
2022/10/22 22:18:30;;;;;;;;;;;;;;;11.99;83.63379;101558.6;;;;-73
2022/10/22 22:23:30;;;;;;;;;;;;;;;11.98;83.4873;101554;;;;-73
2022/10/22 22:28:31;;;;;;;;;;;;;;;11.97;83.39746;101545.8;;;;-73
2022/10/22 22:33:30;;;;;;;;;;;;;;;11.98;83.09766;101536.8;;;;-75
2022/10/22 22:38:30;;;;;;;;;;;;;;;11.98;83.19727;101524.9;;;;-75
2022/10/22 22:43:30;;;;;;;;;;;;;;;11.96;82.75;101529.4;;;;-74
2022/10/22 22:46:06;;;;;;;9;4.1;;;;;;;;;;;;;-74
2022/10/22 22:48:30;;;;;;;;;;;;;;;11.96;82.99609;101528.8;;;;-74
2022/10/22 22:53:30;;;;;;;;;;;;;;;11.93;82.80273;101528.3;;;;-74
2022/10/22 22:58:30;;;;;;;;;;;;;;;11.94;83.02441;101524.1;;;;-75
2022/10/22 23:03:30;;;;;;;;;;;;;;;11.93;83.27734;101516.8;;;;-74
2022/10/22 23:08:30;;;;;;;;;;;;;;;11.94;83.33496;101510.4;;;;-74
2022/10/22 23:13:30;;;;;;;;;;;;;;;11.95;83.16992;101515;;;;-74
2022/10/22 23:16:01;;;;;;;9.9;4.7;;;;;;;;;;;;;-75
2022/10/22 23:18:30;;;;;;;;;;;;;;;11.93;83.28906;101502.5;;;;-75
2022/10/22 23:23:31;;;;;;;;;;;;;;;11.91;83.38672;101500.1;;;;-75
2022/10/22 23:28:30;;;;;;;;;;;;;;;11.9;83.19531;101498.9;;;;-74
2022/10/22 23:33:30;;;;;;;;;;;;;;;11.9;83.41699;101502.1;;;;-74
2022/10/22 23:38:31;;;;;;;;;;;;;;;11.9;83.80469;101488.8;;;;-74
2022/10/22 23:43:31;;;;;;;;;;;;;;;11.88;83.7998;101489.3;;;;-75
2022/10/22 23:46:02;;;;;;;10.2;4.6;;;;;;;;;;;;;-74
2022/10/22 23:48:32;;;;;;;;;;;;;;;11.87;84.65332;101491.2;;;;-76
2022/10/22 23:53:30;;;;;;;;;;;;;;;11.86;83.88477;101484.1;;;;-74
2022/10/22 23:58:30;;;;;;;;;;;;;;;11.82;84.0459;101480.9;;;;-74
